createdAt,value
2022-10-01T00:02:40.412Z,65.39
2022-10-01T00:05:24.963Z,65.47
2022-10-01T00:08:09.783Z,65.27
2022-10-01T00:10:54.587Z,64.67
2022-10-01T00:13:39.302Z,65.00
2022-10-01T00:16:24.216Z,64.85
2022-10-01T00:19:08.909Z,66.13
2022-10-01T00:21:53.763Z,66.30
2022-10-01T00:24:38.546Z,66.45
2022-10-01T00:27:23.320Z,66.25
2022-10-01T00:30:08.114Z,66.01
2022-10-01T00:32:52.963Z,66.44
2022-10-01T00:35:37.800Z,66.04
2022-10-01T00:38:22.476Z,65.90
2022-10-01T00:41:07.363Z,65.49
2022-10-01T00:43:52.164Z,65.08
2022-10-01T00:46:36.938Z,65.96
2022-10-01T00:49:21.555Z,65.85
2022-10-01T00:52:06.367Z,65.89
2022-10-01T00:54:50.976Z,65.55
2022-10-01T00:57:35.907Z,65.56
2022-10-01T01:00:20.735Z,65.08
2022-10-01T01:03:05.437Z,64.75
2022-10-01T01:05:50.257Z,65.10
2022-10-01T01:08:35.080Z,64.95
2022-10-01T01:11:19.899Z,65.11
2022-10-01T01:14:04.567Z,65.27
2022-10-01T01:16:49.350Z,66.82
2022-10-01T01:19:33.989Z,66.42
2022-10-01T01:22:18.848Z,66.68
2022-10-01T01:25:03.614Z,66.38
2022-10-01T01:27:48.424Z,66.26
2022-10-01T01:30:33.031Z,66.07
2022-10-01T01:33:17.836Z,65.90
2022-10-01T01:36:02.617Z,66.08
2022-10-01T01:38:47.407Z,66.70
2022-10-01T01:41:32.572Z,66.76
2022-10-01T01:44:17.536Z,67.17
2022-10-01T01:47:02.352Z,67.56
2022-10-01T01:49:47.037Z,68.41
2022-10-01T01:52:31.834Z,67.80
2022-10-01T01:55:16.501Z,68.63
2022-10-01T01:58:01.302Z,68.29
2022-10-01T02:00:46.033Z,68.47
2022-10-01T02:03:30.789Z,68.23
2022-10-01T02:06:15.645Z,68.38
2022-10-01T02:09:00.247Z,68.14
2022-10-01T02:11:45.125Z,67.51
2022-10-01T02:14:29.802Z,67.55
2022-10-01T02:17:14.599Z,68.11
2022-10-01T02:19:59.312Z,67.64
2022-10-01T02:22:44.002Z,67.58
2022-10-01T02:25:28.704Z,67.42
2022-10-01T02:28:13.544Z,67.59
2022-10-01T02:30:58.236Z,67.53
2022-10-01T02:33:43.072Z,67.66
2022-10-01T02:36:27.848Z,68.16
2022-10-01T02:39:12.573Z,67.54
2022-10-01T02:41:57.389Z,66.29
2022-10-01T02:44:42.164Z,64.75
2022-10-01T02:47:26.876Z,64.48
2022-10-01T02:50:11.585Z,65.37
2022-10-01T02:52:56.261Z,66.22
2022-10-01T02:55:41.083Z,66.00
2022-10-01T02:58:25.807Z,66.36
2022-10-01T03:01:10.529Z,66.29
2022-10-01T03:03:55.408Z,66.70
2022-10-01T03:06:40.201Z,67.90
2022-10-01T03:09:25.011Z,67.88
2022-10-01T03:12:09.942Z,68.55
2022-10-01T03:14:54.813Z,68.87
2022-10-01T03:17:39.624Z,69.70
2022-10-01T03:20:24.271Z,70.35
2022-10-01T03:23:08.965Z,69.94
2022-10-01T03:25:53.725Z,69.10
2022-10-01T03:28:38.458Z,68.94
2022-10-01T03:31:23.188Z,68.32
2022-10-01T03:34:07.996Z,68.74
2022-10-01T03:36:52.788Z,70.01
2022-10-01T03:39:37.489Z,71.26
2022-10-01T03:42:22.493Z,72.12
2022-10-01T03:45:07.268Z,71.03
2022-10-01T03:47:52.140Z,72.12
2022-10-01T03:50:36.791Z,71.44
2022-10-01T03:53:21.659Z,71.56
2022-10-01T03:56:06.500Z,70.98
2022-10-01T03:58:51.204Z,70.02
2022-10-01T04:01:36.321Z,70.10
2022-10-01T04:04:21.688Z,69.83
2022-10-01T04:07:06.695Z,70.46
2022-10-01T04:09:51.383Z,70.47
2022-10-01T04:12:36.139Z,69.32
2022-10-01T04:15:20.745Z,68.53
2022-10-01T04:18:05.465Z,67.83
2022-10-01T04:20:50.240Z,68.00
2022-10-01T04:23:34.933Z,67.04
2022-10-01T04:26:19.596Z,66.97
2022-10-01T04:29:04.326Z,67.71
2022-10-01T04:31:49.079Z,67.11
2022-10-01T04:34:33.810Z,67.09
2022-10-01T04:37:18.668Z,67.63
2022-10-01T04:40:03.437Z,66.59
2022-10-01T04:42:48.247Z,66.07
2022-10-01T04:45:33.028Z,65.24
2022-10-01T04:48:17.821Z,64.99
2022-10-01T04:51:02.576Z,65.05
2022-10-01T04:53:47.246Z,64.18
2022-10-01T04:56:31.911Z,63.96
2022-10-01T04:59:16.742Z,63.99
2022-10-01T05:02:01.625Z,64.81
2022-10-01T05:04:46.388Z,64.07
2022-10-01T05:07:31.150Z,64.78
2022-10-01T05:10:15.829Z,63.85
2022-10-01T05:13:00.808Z,63.58
2022-10-01T05:15:45.441Z,62.91
2022-10-01T05:18:30.397Z,63.39
2022-10-01T05:21:15.163Z,62.88
2022-10-01T05:24:00.003Z,62.64
2022-10-01T05:26:44.735Z,62.52
2022-10-01T05:29:29.543Z,62.65
2022-10-01T05:32:14.411Z,62.30
2022-10-01T05:34:59.272Z,62.46
2022-10-01T05:37:44.074Z,62.15
2022-10-01T05:40:28.833Z,62.08
2022-10-01T05:43:13.486Z,62.53
2022-10-01T05:45:58.186Z,63.56
2022-10-01T05:48:43.002Z,63.58
2022-10-01T05:51:27.805Z,63.51
2022-10-01T05:54:12.825Z,63.27
2022-10-01T05:56:57.385Z,62.87
2022-10-01T05:59:42.216Z,62.71
2022-10-01T06:02:26.894Z,62.34
2022-10-01T06:05:11.695Z,62.14
2022-10-01T06:07:56.659Z,62.15
2022-10-01T06:10:41.341Z,63.28
2022-10-01T06:13:26.144Z,61.95
2022-10-01T06:16:10.823Z,62.00
2022-10-01T06:18:55.591Z,62.22
2022-10-01T06:21:40.235Z,62.60
2022-10-01T06:24:24.929Z,62.10
2022-10-01T06:27:12.657Z,62.24
2022-10-01T06:29:57.395Z,63.66
2022-10-01T06:32:42.196Z,63.73
2022-10-01T06:35:27.014Z,62.04
2022-10-01T06:38:11.710Z,61.74
2022-10-01T06:40:56.377Z,61.98
2022-10-01T06:43:41.238Z,61.52
2022-10-01T06:46:25.803Z,61.17
2022-10-01T06:49:10.468Z,61.97
2022-10-01T06:51:55.149Z,60.35
2022-10-01T06:54:39.805Z,61.29
2022-10-01T06:57:24.568Z,60.81
2022-10-01T07:00:09.314Z,61.40
2022-10-01T07:02:54.064Z,62.68
2022-10-01T07:05:38.766Z,62.48
2022-10-01T07:08:23.496Z,63.33
2022-10-01T07:11:08.385Z,63.02
2022-10-01T07:13:54.695Z,61.60
2022-10-01T07:16:39.982Z,61.83
2022-10-01T07:19:24.901Z,62.44
2022-10-01T07:22:10.230Z,63.87
2022-10-01T07:24:54.941Z,62.46
2022-10-01T07:27:39.761Z,62.86
2022-10-01T07:30:24.662Z,63.18
2022-10-01T07:33:09.888Z,64.13
2022-10-01T07:35:54.599Z,62.11
2022-10-01T07:38:39.443Z,60.78
2022-10-01T07:41:24.169Z,61.90
2022-10-01T07:44:08.992Z,61.04
2022-10-01T07:46:53.597Z,60.96
2022-10-01T07:49:38.363Z,61.60
2022-10-01T07:52:23.142Z,62.75
2022-10-01T07:55:07.879Z,64.42
2022-10-01T07:57:52.663Z,63.50
2022-10-01T08:00:37.381Z,63.10
2022-10-01T08:03:22.172Z,61.24
2022-10-01T08:06:06.857Z,60.61
2022-10-01T08:08:51.606Z,60.65
2022-10-01T08:11:36.756Z,60.12
2022-10-01T08:14:22.173Z,59.79
2022-10-01T08:17:07.047Z,61.57
2022-10-01T08:19:51.780Z,61.23
2022-10-01T08:22:41.683Z,61.46
2022-10-01T08:25:27.038Z,61.42
2022-10-01T08:28:11.784Z,61.29
2022-10-01T08:30:56.634Z,61.14
2022-10-01T08:33:41.319Z,59.18
2022-10-01T08:36:26.119Z,58.98
2022-10-01T08:39:10.849Z,61.61
2022-10-01T08:41:55.576Z,62.23
2022-10-01T08:44:41.254Z,63.49
2022-10-01T08:47:26.557Z,61.66
2022-10-01T08:50:11.399Z,61.21
2022-10-01T08:52:56.425Z,60.52
2022-10-01T08:55:41.816Z,61.44
2022-10-01T08:58:26.508Z,62.09
2022-10-01T09:01:11.492Z,62.06
2022-10-01T09:03:56.207Z,61.87
2022-10-01T09:06:41.096Z,62.55
2022-10-01T09:09:25.800Z,61.73
2022-10-01T09:12:10.546Z,62.50
2022-10-01T09:14:55.292Z,62.34
2022-10-01T09:17:40.061Z,61.84
2022-10-01T09:20:24.908Z,62.90
2022-10-01T09:23:09.649Z,63.18
2022-10-01T09:25:54.351Z,63.83
2022-10-01T09:28:39.198Z,65.20
2022-10-01T09:31:23.967Z,65.12
2022-10-01T09:34:08.608Z,65.15
2022-10-01T09:36:53.457Z,66.41
2022-10-01T09:39:38.321Z,65.77
2022-10-01T09:42:23.046Z,64.84
2022-10-01T09:45:07.903Z,65.36
2022-10-01T09:47:52.511Z,64.65
2022-10-01T09:50:37.293Z,64.33
2022-10-01T09:53:22.343Z,64.80
2022-10-01T09:56:07.310Z,65.08
2022-10-01T09:58:52.083Z,64.85
2022-10-01T10:01:37.465Z,64.07
2022-10-01T10:04:22.817Z,64.05
2022-10-01T10:07:07.566Z,64.76
2022-10-01T10:09:52.313Z,63.94
2022-10-01T10:12:37.029Z,63.75
2022-10-01T10:15:21.866Z,63.66
2022-10-01T10:18:06.664Z,63.43
2022-10-01T10:20:51.406Z,63.00
2022-10-01T10:23:36.099Z,63.41
2022-10-01T10:26:20.938Z,63.12
2022-10-01T10:29:05.616Z,63.17
2022-10-01T10:31:50.456Z,63.83
2022-10-01T10:34:35.352Z,63.94
2022-10-01T10:37:20.560Z,63.48
2022-10-01T10:40:05.242Z,63.16
2022-10-01T10:42:51.126Z,63.13
2022-10-01T10:45:35.853Z,62.59
2022-10-01T10:48:20.617Z,63.74
2022-10-01T10:51:05.389Z,64.13
2022-10-01T10:53:50.095Z,62.73
2022-10-01T10:56:34.965Z,63.38
2022-10-01T10:59:20.134Z,66.04
2022-10-01T11:02:04.902Z,65.45
2022-10-01T11:04:50.187Z,65.71
2022-10-01T11:07:34.926Z,65.10
2022-10-01T11:10:19.669Z,65.25
2022-10-01T11:13:04.389Z,66.37
2022-10-01T11:15:49.261Z,65.42
2022-10-01T11:18:34.405Z,66.26
2022-10-01T11:21:19.175Z,66.18
2022-10-01T11:24:03.904Z,66.57
2022-10-01T11:26:51.680Z,66.10
2022-10-01T11:29:37.971Z,66.06
2022-10-01T11:32:22.793Z,65.47
2022-10-01T11:35:07.555Z,63.51
2022-10-01T11:37:52.280Z,63.46
2022-10-01T11:40:36.951Z,65.53
2022-10-01T11:43:21.716Z,65.19
2022-10-01T11:46:06.519Z,65.23
2022-10-01T11:48:51.327Z,65.98
2022-10-01T11:51:36.135Z,65.17
2022-10-01T11:54:21.093Z,65.24
2022-10-01T11:57:05.760Z,66.39
2022-10-01T11:59:50.728Z,65.50
2022-10-01T12:02:35.409Z,64.62
2022-10-01T12:05:20.416Z,67.60
2022-10-01T12:08:05.157Z,67.20
2022-10-01T12:10:49.863Z,67.32
2022-10-01T12:13:34.572Z,66.43
2022-10-01T12:16:19.460Z,66.58
2022-10-01T12:19:04.309Z,65.38
2022-10-01T12:21:48.906Z,65.14
2022-10-01T12:24:33.687Z,67.25
2022-10-01T12:27:18.467Z,68.67
2022-10-01T12:30:03.386Z,69.00
2022-10-01T12:32:48.083Z,67.80
2022-10-01T12:35:32.962Z,66.85
2022-10-01T12:38:17.815Z,67.72
2022-10-01T12:41:02.616Z,68.28
2022-10-01T12:43:47.599Z,67.94
2022-10-01T12:46:32.470Z,67.87
2022-10-01T12:49:17.631Z,67.04
2022-10-01T12:52:02.258Z,69.22
2022-10-01T12:54:47.090Z,70.22
2022-10-01T12:57:31.816Z,69.82
2022-10-01T13:00:16.627Z,69.46
2022-10-01T13:03:01.275Z,69.83
2022-10-01T13:05:46.065Z,69.96
2022-10-01T13:08:30.863Z,70.08
2022-10-01T13:11:15.649Z,70.54
2022-10-01T13:14:00.409Z,70.82
2022-10-01T13:16:45.158Z,69.45
2022-10-01T13:19:29.949Z,67.54
2022-10-01T13:22:14.684Z,69.72
2022-10-01T13:24:59.391Z,70.01
2022-10-01T13:27:44.198Z,69.60
2022-10-01T13:30:28.926Z,69.87
2022-10-01T13:33:13.484Z,69.63
2022-10-01T13:35:58.287Z,69.73
2022-10-01T13:38:42.958Z,70.30
2022-10-01T13:41:27.745Z,71.44
2022-10-01T13:44:12.538Z,70.63
2022-10-01T13:46:57.236Z,70.18
2022-10-01T13:49:42.013Z,70.54
2022-10-01T13:52:26.756Z,70.10
2022-10-01T13:55:11.576Z,70.03
2022-10-01T13:57:56.288Z,70.33
2022-10-01T14:00:41.139Z,71.61
2022-10-01T14:03:25.821Z,70.90
2022-10-01T14:06:10.770Z,71.15
2022-10-01T14:08:55.765Z,70.75
2022-10-01T14:11:40.512Z,70.26
2022-10-01T14:14:25.263Z,70.03
2022-10-01T14:17:10.040Z,68.59
2022-10-01T14:19:54.812Z,68.72
2022-10-01T14:22:39.615Z,69.03
2022-10-01T14:25:24.326Z,71.00
2022-10-01T14:28:08.988Z,70.42
2022-10-01T14:30:53.938Z,69.49
2022-10-01T14:33:38.535Z,69.52
2022-10-01T14:36:23.228Z,69.41
2022-10-01T14:39:07.827Z,69.88
2022-10-01T14:41:52.553Z,69.72
2022-10-01T14:44:37.366Z,69.73
2022-10-01T14:47:22.080Z,70.83
2022-10-01T14:50:06.809Z,70.87
2022-10-01T14:52:51.590Z,71.29
2022-10-01T14:55:36.362Z,70.77
2022-10-01T14:58:20.969Z,69.90
2022-10-01T15:01:05.630Z,70.18
2022-10-01T15:03:50.375Z,70.22
2022-10-01T15:06:35.251Z,69.84
2022-10-01T15:09:20.498Z,69.55
2022-10-01T15:12:05.066Z,70.26
2022-10-01T15:14:49.842Z,70.08
2022-10-01T15:17:34.618Z,69.37
2022-10-01T15:20:19.505Z,70.06
2022-10-01T15:23:04.308Z,69.10
2022-10-01T15:25:49.129Z,69.35
2022-10-01T15:28:33.774Z,69.44
2022-10-01T15:31:18.629Z,69.74
2022-10-01T15:34:03.419Z,69.86
2022-10-01T15:36:48.158Z,69.87
2022-10-01T15:39:32.850Z,70.09
2022-10-01T15:42:17.532Z,70.34
2022-10-01T15:45:02.335Z,70.43
2022-10-01T15:47:47.050Z,70.72
2022-10-01T15:50:31.942Z,70.55
2022-10-01T15:53:16.745Z,71.11
2022-10-01T15:56:01.604Z,72.10
2022-10-01T15:58:46.382Z,72.92
2022-10-01T16:01:31.134Z,72.08
2022-10-01T16:04:15.823Z,72.61
2022-10-01T16:07:00.545Z,72.00
2022-10-01T16:09:45.218Z,72.17
2022-10-01T16:12:29.901Z,72.40
2022-10-01T16:15:14.816Z,71.62
2022-10-01T16:17:59.574Z,71.48
2022-10-01T16:20:48.989Z,72.16
2022-10-01T16:23:35.275Z,71.78
2022-10-01T16:26:20.180Z,71.28
2022-10-01T16:29:04.789Z,71.31
2022-10-01T16:31:49.559Z,71.19
2022-10-01T16:34:34.372Z,71.41
2022-10-01T16:37:18.947Z,71.08
2022-10-01T16:40:03.680Z,70.98
2022-10-01T16:42:48.473Z,70.63
2022-10-01T16:45:33.262Z,71.24
2022-10-01T16:48:17.983Z,71.90
2022-10-01T16:51:02.769Z,71.95
2022-10-01T16:53:47.686Z,71.17
2022-10-01T16:56:32.374Z,71.86
2022-10-01T16:59:17.164Z,71.88
2022-10-01T17:02:01.816Z,71.18
2022-10-01T17:04:46.590Z,71.62
2022-10-01T17:07:31.386Z,71.63
2022-10-01T17:10:16.202Z,72.45
2022-10-01T17:13:00.945Z,73.50
2022-10-01T17:15:45.720Z,72.62
2022-10-01T17:18:30.600Z,72.76
2022-10-01T17:21:15.318Z,72.55
2022-10-01T17:24:00.191Z,73.31
2022-10-01T17:26:44.856Z,72.55
2022-10-01T17:29:29.564Z,73.40
2022-10-01T17:32:14.201Z,72.51
2022-10-01T17:34:59.024Z,72.27
2022-10-01T17:37:43.665Z,71.74
2022-10-01T17:40:28.410Z,72.04
2022-10-01T17:43:13.155Z,72.19
2022-10-01T17:45:58.041Z,72.44
2022-10-01T17:48:42.761Z,72.14
2022-10-01T17:51:27.504Z,72.10
2022-10-01T17:54:12.253Z,71.94
2022-10-01T17:56:57.013Z,71.64
2022-10-01T17:59:41.829Z,71.06
2022-10-01T18:02:43.090Z,71.66
2022-10-01T18:05:28.483Z,71.83
2022-10-01T18:08:13.256Z,71.45
2022-10-01T18:10:57.969Z,71.79
2022-10-01T18:13:42.751Z,72.14
2022-10-01T18:16:27.645Z,72.78
2022-10-01T18:22:17.752Z,72.53
2022-10-01T18:25:02.571Z,72.12
2022-10-01T18:27:47.338Z,72.08
2022-10-01T18:30:32.202Z,71.67
2022-10-01T18:33:17.071Z,73.29
2022-10-01T18:36:02.143Z,73.27
2022-10-01T18:38:47.306Z,73.09
2022-10-01T18:41:32.412Z,73.04
2022-10-01T18:44:20.261Z,73.27
2022-10-01T18:47:05.719Z,73.50
2022-10-01T18:49:50.436Z,73.92
2022-10-01T18:52:35.283Z,73.90
2022-10-01T18:55:21.391Z,74.27
2022-10-01T18:58:06.233Z,73.52
2022-10-01T19:00:51.009Z,73.80
2022-10-01T19:03:35.698Z,74.06
2022-10-01T19:06:20.579Z,72.53
2022-10-01T19:09:05.183Z,72.49
2022-10-01T19:11:49.966Z,72.81
2022-10-01T19:14:34.713Z,73.66
2022-10-01T19:17:19.565Z,74.28
2022-10-01T19:20:04.167Z,73.86
2022-10-01T19:22:48.951Z,74.14
2022-10-01T19:25:33.804Z,74.53
2022-10-01T19:28:18.521Z,73.82
2022-10-01T19:31:03.907Z,73.35
2022-10-01T19:33:48.655Z,73.64
2022-10-01T19:36:34.678Z,73.67
2022-10-01T19:39:19.731Z,73.24
2022-10-01T19:42:04.411Z,73.39
2022-10-01T19:44:49.130Z,73.14
2022-10-01T19:47:33.955Z,73.38
2022-10-01T19:50:18.697Z,72.84
2022-10-01T19:53:03.435Z,72.92
2022-10-01T19:55:48.342Z,72.66
2022-10-01T19:58:33.140Z,73.18
2022-10-01T20:01:18.016Z,72.74
2022-10-01T20:04:02.835Z,72.79
2022-10-01T20:06:47.861Z,72.74
2022-10-01T20:09:32.622Z,72.85
2022-10-01T20:12:17.497Z,73.54
2022-10-01T20:15:02.202Z,72.83
2022-10-01T20:17:47.047Z,73.21
2022-10-01T20:20:31.730Z,73.45
2022-10-01T20:23:16.502Z,73.65
2022-10-01T20:26:01.408Z,73.04
2022-10-01T20:28:46.033Z,73.55
2022-10-01T20:31:30.776Z,73.04
2022-10-01T20:34:15.422Z,73.24
2022-10-01T20:37:00.129Z,73.08
2022-10-01T20:39:44.931Z,72.58
2022-10-01T20:42:29.650Z,72.61
2022-10-01T20:45:14.368Z,72.21
2022-10-01T20:47:59.192Z,72.74
2022-10-01T20:50:43.883Z,72.87
2022-10-01T20:53:28.701Z,73.16
2022-10-01T20:56:13.391Z,73.69
2022-10-01T20:58:58.162Z,73.00
2022-10-01T21:01:43.001Z,73.47
2022-10-01T21:04:27.755Z,73.69
2022-10-01T21:07:12.614Z,73.70
2022-10-01T21:09:57.311Z,73.49
2022-10-01T21:12:42.155Z,73.80
2022-10-01T21:15:26.737Z,72.99
2022-10-01T21:18:11.608Z,73.82
2022-10-01T21:20:56.247Z,73.19
2022-10-01T21:23:41.050Z,73.74
2022-10-01T21:26:25.787Z,73.28
2022-10-01T21:29:10.437Z,73.31
2022-10-01T21:31:55.307Z,73.20
2022-10-01T21:34:40.082Z,73.88
2022-10-01T21:37:24.942Z,73.96
2022-10-01T21:40:09.655Z,73.80
2022-10-01T21:42:54.437Z,73.72
2022-10-01T21:45:39.354Z,73.55
2022-10-01T21:48:24.482Z,73.45
2022-10-01T21:51:09.318Z,73.59
2022-10-01T21:53:54.139Z,73.92
2022-10-01T21:56:39.179Z,74.18
2022-10-01T21:59:24.367Z,74.88
2022-10-01T22:02:09.398Z,74.38
2022-10-01T22:04:53.926Z,73.69
2022-10-01T22:07:38.839Z,73.91
2022-10-01T22:10:23.635Z,74.38
2022-10-01T22:13:08.320Z,74.72
2022-10-01T22:15:53.090Z,74.58
2022-10-01T22:18:37.860Z,74.32
2022-10-01T22:21:22.786Z,74.67
2022-10-01T22:24:07.598Z,74.57
2022-10-01T22:26:52.341Z,73.67
2022-10-01T22:29:37.072Z,73.54
2022-10-01T22:32:21.856Z,74.42
2022-10-01T22:35:06.518Z,73.43
2022-10-01T22:37:51.323Z,73.85
2022-10-01T22:40:35.989Z,73.60
2022-10-01T22:43:20.834Z,73.26
2022-10-01T22:46:05.609Z,74.02
2022-10-01T22:48:50.295Z,73.41
2022-10-01T22:51:35.059Z,73.41
2022-10-01T22:54:19.724Z,73.66
2022-10-01T22:57:04.617Z,74.10
2022-10-01T22:59:49.263Z,73.83
2022-10-01T23:02:33.973Z,73.77
2022-10-01T23:05:18.716Z,73.37
2022-10-01T23:08:03.508Z,73.95
2022-10-01T23:10:48.162Z,73.88
2022-10-01T23:13:33.014Z,74.04
2022-10-01T23:16:17.802Z,73.45
2022-10-01T23:19:02.515Z,74.04
2022-10-01T23:21:47.180Z,73.46
2022-10-01T23:24:31.859Z,74.36
2022-10-01T23:27:16.624Z,74.19
2022-10-01T23:30:01.458Z,73.57
2022-10-01T23:32:46.232Z,73.61
2022-10-01T23:35:31.026Z,73.54
2022-10-01T23:38:15.673Z,73.40
2022-10-01T23:41:00.272Z,74.22
2022-10-01T23:43:45.155Z,73.66
2022-10-01T23:46:29.924Z,74.08
2022-10-01T23:49:14.699Z,74.04
2022-10-01T23:51:59.512Z,73.55
2022-10-01T23:54:44.191Z,73.10
2022-10-01T23:57:28.892Z,73.07
